• Join FlightAware (Why Join?)
  • Login
  • US Flag 
03:03AM EST


 

Airport Tracker/Info


-or-


 

Live Flight TrackerFlight Track Log ✈ TAM3902 ✈ 28-Oct-2013 ✈ SBSP / CGH - SBRJ / SDU

Flight Track Log - Related Links

Times and Time Zones

All times are in EDT time to prevent confusion due to time zone crossing. See the TAM3902 flight status page for this flight to view local times or setup timezone preferences in your user account.

Time Position Orientation Groundspeed Altitude Reporting Facility
EDT Latitude Longitude Course Direction KTS MPH feet Rate Location/Type
04:37AM -23.5101 -46.0574 78° East  Level Estimated
04:38AM -23.4932 -45.9721 78° East  Level Estimated
04:39AM -23.4764 -45.8868 78° East  Level Estimated
04:40AM -23.4594 -45.8015 78° East  Level Estimated
04:41AM -23.4424 -45.7162 78° East  Level Estimated
04:42AM -23.4254 -45.6310 78° East  Level Estimated
04:43AM -23.4083 -45.5458 78° East  Level Estimated
04:44AM -23.3912 -45.4606 78° East  Level Estimated
04:45AM -23.3740 -45.3754 78° East  Level Estimated
04:46AM -23.3568 -45.2902 78° East  Level Estimated
04:47AM -23.3396 -45.2051 78° East  Level Estimated
04:48AM -23.3223 -45.1200 78° East  Level Estimated
04:49AM -23.3049 -45.0349 77° East  Level Estimated
04:50AM -23.2875 -44.9498 77° East  Level Estimated
04:51AM -23.2701 -44.8648 77° East  Level Estimated
04:52AM -23.2526 -44.7798 77° East  Level Estimated
04:53AM -23.2350 -44.6948 77° East  Level Estimated
04:54AM -23.2175 -44.6098 77° East  Level Estimated
04:55AM -23.1998 -44.5248 77° East  Level Estimated
04:56AM -23.1822 -44.4399 77° East  Level Estimated
04:57AM -23.1644 -44.3550 77° East  Level Estimated
04:58AM -23.1467 -44.2701 77° East  Level Estimated
04:59AM -23.1289 -44.1852 77° East  Level Estimated
05:00AM -23.1110 -44.1004 77° East  Level Estimated
05:01AM -23.0931 -44.0156 77° East  Level Estimated
05:02AM -23.0752 -43.9308 77° East  Level Estimated
05:03AM -23.0572 -43.8460 77° East  Level Estimated
05:04AM -23.0392 -43.7612 77° East  Level Estimated
05:05AM -23.0211 -43.6765 77° East  Level Estimated
05:06AM -23.0030 -43.5918 77° East  Level Estimated
05:07AM -22.9848 -43.5071 77° East  Level Estimated
05:08AM -22.9666 -43.4225 77° East  Level Estimated
05:09AM -22.9483 -43.3378 77° East  Level Estimated
05:10AM -22.9300 -43.2532 77° East  Level Estimated
05:11AM -22.9116 -43.1686 77° East  Level Estimated
05:12AM -22.9105 -43.1631 77° East  Level Estimated
05:13AM -22.9105 -43.1631 250° West  Level Estimated
05:14AM -22.9105 -43.1631 250° West  Level Estimated
05:15AM -22.9105 -43.1631 250° West  Level Estimated
05:16AM -22.9105 -43.1631 250° West  Level Estimated
05:17AM -22.9105 -43.1631 250° West  Level Estimated
05:18AM -22.9105 -43.1631 250° West  Level Estimated
05:19AM -22.9105 -43.1631 250° West  Level Estimated
05:20AM -22.9105 -43.1631 250° West  Level Estimated
05:21AM -22.9105 -43.1631 250° West  Level Estimated
05:22AM -22.9105 -43.1631 250° West  Level Estimated
05:23AM -22.9105 -43.1631 250° West  Level Estimated
05:24AM -22.9105 -43.1631 250° West  Level Estimated
05:25AM -22.9105 -43.1631 250° West  Level Estimated
05:26AM -22.9105 -43.1631 250° West  Level Estimated
05:27AM -22.9105 -43.1631 250° West  Level Estimated